SCCY/GXQ METAR and TAF weather

Enter ICAO airport designator
Station Type Date Time Source
SCCY METAR 2021/09/24 00:00 UTC NOAA

SCCY 240000Z 05006KT 9999 BKN033 10/06 Q1014


Station Type Date Time Source
SCCY Decoded METAR 2021/09/24 00:00 UTC NOAA

Coyhaique, Chile (SCCY) 45-35S 072-07W
Sep 23, 2021 - 08:00 PM EDT / 2021.09.24 0000 UTC
Wind: from the NE (050 degrees) at 7 MPH (6 KT):0
Visibility: greater than 7 mile(s):0
Sky conditions: mostly cloudy
Temperature: 50 F (10 C)
Dew Point: 42 F (6 C)
Relative Humidity: 76%
Pressure (altimeter): 29.94 in. Hg (1014 hPa)
ob: SCCY 240000Z 05006KT 9999 BKN033 10/06 Q1014
cycle: 0

Station Type Date Time Source
SCCY TAF 2021/09/23 12:33 UTC NOAA

TAF SCCY 231023Z 2312/2324 VRB02KT 9999 -SHRA SCT030 BKN045 TN08/2312Z TX14/2319Z
TEMPO 2313/2317 7000 -SHRA BKN025 BKN035
BECMG 2318/2320 32005KT NSW OVC045
BECMG 2322/2324 VRB02KT -SHRA SCT025 BKN040

Example: see airport list